createdAt,value
2023-05-06T00:00:55.951Z,100635.91
2023-05-06T00:04:57.653Z,100638.63
2023-05-06T00:08:59.711Z,100624.06
2023-05-06T00:13:01.350Z,100633.56
2023-05-06T00:17:02.964Z,100635.34
2023-05-06T00:21:04.622Z,100631.06
2023-05-06T00:25:06.654Z,100629.34
2023-05-06T00:29:08.311Z,100617.31
2023-05-06T00:33:10.006Z,100613.84
2023-05-06T00:37:11.614Z,100615.56
2023-05-06T00:41:13.222Z,100613.03
2023-05-06T00:45:15.554Z,100611.28
2023-05-06T00:49:17.267Z,100618.97
2023-05-06T00:53:23.703Z,100618.97
2023-05-06T00:57:25.412Z,100615.47
2023-05-06T01:01:27.269Z,100617.16
2023-05-06T01:05:35.889Z,100603.28
2023-05-06T01:10:02.227Z,100613.53
2023-05-06T01:14:14.913Z,100605.69
2023-05-06T01:18:20.899Z,100613.28
2023-05-06T01:22:23.411Z,100608.03
2023-05-06T01:26:25.416Z,100614.88
2023-05-06T01:30:35.798Z,100609.59
2023-05-06T01:34:48.379Z,100609.47
2023-05-06T01:38:53.978Z,100609.34
2023-05-06T01:42:56.617Z,100606.63
2023-05-06T01:46:58.287Z,100609.16
2023-05-06T01:51:00.015Z,100609.16
2023-05-06T01:55:01.609Z,100616.81
2023-05-06T01:59:03.245Z,100615.03
2023-05-06T02:03:05.757Z,100619.22
2023-05-06T02:07:07.624Z,100623.47
2023-05-06T02:11:09.395Z,100618.25
2023-05-06T02:15:11.553Z,100625.94
2023-05-06T02:19:13.162Z,100624.13
2023-05-06T02:23:14.981Z,100621.47
2023-05-06T02:27:16.492Z,100622.22
2023-05-06T02:31:18.182Z,100630.66
2023-05-06T02:35:19.783Z,100632.25
2023-05-06T02:39:21.345Z,100633.91
2023-05-06T02:43:23.140Z,100631.22
2023-05-06T02:47:24.989Z,100622.56
2023-05-06T02:51:26.666Z,100619.91
2023-05-06T02:55:28.290Z,100613.84
2023-05-06T02:59:29.871Z,100614.66
2023-05-06T03:03:33.304Z,100609.44
2023-05-06T03:07:36.150Z,100604.16
2023-05-06T03:11:38.647Z,100609.22
2023-05-06T03:15:41.482Z,100601.38
2023-05-06T03:19:43.054Z,100602.94
2023-05-06T03:23:47.023Z,100603.75
2023-05-06T03:27:50.176Z,100603.63
2023-05-06T03:31:58.072Z,100610.44
2023-05-06T03:36:01.215Z,100606.94
2023-05-06T03:40:04.440Z,100618.06
2023-05-06T03:44:07.426Z,100624.00
2023-05-06T03:48:09.141Z,100624.84
2023-05-06T03:52:14.975Z,100617.97
2023-05-06T03:56:18.154Z,100629.13
2023-05-06T04:00:23.077Z,100636.81
2023-05-06T04:04:28.210Z,100623.78
2023-05-06T04:08:30.782Z,100629.69
2023-05-06T04:12:32.474Z,100632.13
2023-05-06T04:16:35.135Z,100641.56
2023-05-06T04:20:36.777Z,100633.81
2023-05-06T04:24:39.273Z,100642.41
2023-05-06T04:28:40.985Z,100642.50
2023-05-06T04:32:44.216Z,100648.56
2023-05-06T04:36:47.673Z,100644.22
2023-05-06T04:40:56.452Z,100651.94
2023-05-06T04:44:59.278Z,100652.78
2023-05-06T04:49:05.340Z,100657.88
2023-05-06T04:53:07.132Z,100652.88
2023-05-06T04:57:09.093Z,100649.50
2023-05-06T05:01:12.107Z,100657.34
2023-05-06T05:05:14.460Z,100656.56
2023-05-06T05:09:18.728Z,100669.59
2023-05-06T05:13:22.989Z,100668.84
2023-05-06T05:17:26.445Z,100672.44
2023-05-06T05:21:28.218Z,100670.03
2023-05-06T05:25:31.513Z,100663.28
2023-05-06T05:29:33.164Z,100667.78
2023-05-06T05:33:37.003Z,100671.38
2023-05-06T05:37:42.248Z,100678.44
2023-05-06T05:41:44.420Z,100676.84
2023-05-06T05:45:46.809Z,100682.13
2023-05-06T05:49:49.168Z,100683.03
2023-05-06T05:53:52.239Z,100681.44
2023-05-06T05:57:55.900Z,100673.94
2023-05-06T06:01:59.059Z,100676.78
2023-05-06T06:06:01.355Z,100667.50
2023-05-06T06:10:04.489Z,100670.25
2023-05-06T06:14:06.178Z,100672.03
2023-05-06T06:18:08.976Z,100679.97
2023-05-06T06:22:12.273Z,100686.25
2023-05-06T06:26:13.958Z,100685.81
2023-05-06T06:30:18.479Z,100691.22
2023-05-06T06:34:20.061Z,100692.28
2023-05-06T06:38:21.645Z,100700.06
2023-05-06T06:42:23.583Z,100697.50
2023-05-06T06:46:39.784Z,100699.53
2023-05-06T06:50:41.371Z,100691.97
2023-05-06T06:54:42.933Z,100694.53
2023-05-06T06:58:44.520Z,100697.44
2023-05-06T07:02:48.079Z,100697.69
2023-05-06T07:06:49.760Z,100698.72
2023-05-06T07:10:51.490Z,100696.09
2023-05-06T07:14:53.057Z,100699.72
2023-05-06T07:18:55.750Z,100700.75
2023-05-06T07:22:57.352Z,100694.94
2023-05-06T07:26:59.089Z,100699.44
2023-05-06T07:31:00.688Z,100697.00
2023-05-06T07:35:03.077Z,100698.00
2023-05-06T07:39:04.648Z,100698.09
2023-05-06T07:43:07.160Z,100694.78
2023-05-06T07:47:08.958Z,100697.50
2023-05-06T07:51:11.380Z,100705.44
2023-05-06T07:55:13.168Z,100702.03
2023-05-06T07:59:15.045Z,100708.16
2023-05-06T08:03:16.960Z,100697.94
2023-05-06T08:07:19.103Z,100701.53
2023-05-06T08:11:20.691Z,100704.25
2023-05-06T08:15:22.317Z,100705.22
2023-05-06T08:19:23.862Z,100711.28
2023-05-06T08:23:25.688Z,100712.13
2023-05-06T08:27:27.427Z,100712.94
2023-05-06T08:31:29.138Z,100714.63
2023-05-06T08:35:30.936Z,100714.69
2023-05-06T08:39:32.545Z,100710.44
2023-05-06T08:43:38.218Z,100714.91
2023-05-06T08:47:40.725Z,100708.91
2023-05-06T08:51:44.191Z,100703.81
2023-05-06T08:55:47.839Z,100698.69
2023-05-06T08:59:49.448Z,100696.22
2023-05-06T09:03:51.452Z,100696.22
2023-05-06T09:07:53.149Z,100691.09
2023-05-06T09:11:57.243Z,100679.00
2023-05-06T09:15:58.870Z,100679.88
2023-05-06T09:20:00.540Z,100684.28
2023-05-06T09:24:03.917Z,100681.66
2023-05-06T09:28:10.925Z,100680.78
2023-05-06T09:32:14.471Z,100676.47
2023-05-06T09:36:16.452Z,100675.63
2023-05-06T09:40:18.102Z,100675.63
2023-05-06T09:44:22.756Z,100678.16
2023-05-06T09:48:29.272Z,100661.66
2023-05-06T09:52:31.480Z,100665.91
2023-05-06T09:56:33.911Z,100665.03
2023-05-06T10:00:36.496Z,100656.34
2023-05-06T10:04:43.358Z,100645.06
2023-05-06T10:08:46.930Z,100637.16
2023-05-06T10:12:49.491Z,100635.38
2023-05-06T10:16:52.573Z,100636.19
2023-05-06T10:20:55.342Z,100634.38
2023-05-06T10:25:05.523Z,100639.53
2023-05-06T10:29:11.434Z,100639.34
2023-05-06T10:33:14.890Z,100631.25
2023-05-06T10:37:16.919Z,100617.19
2023-05-06T10:41:21.204Z,100613.66
2023-05-06T10:45:22.868Z,100614.41
2023-05-06T10:49:24.812Z,100608.22
2023-05-06T10:54:02.513Z,100606.53
2023-05-06T10:58:14.693Z,100593.50
2023-05-06T11:02:20.357Z,100596.09
2023-05-06T11:06:44.595Z,100593.34
2023-05-06T11:10:46.401Z,100584.63
2023-05-06T11:14:48.244Z,100584.50
2023-05-06T11:18:50.318Z,100580.88
2023-05-06T11:22:52.997Z,100574.44
2023-05-06T11:26:56.440Z,100568.13
2023-05-06T11:30:59.556Z,100567.28
2023-05-06T11:35:01.112Z,100569.03
2023-05-06T11:39:10.091Z,100569.00
2023-05-06T11:43:12.926Z,100573.28
2023-05-06T11:47:14.529Z,100575.94
2023-05-06T11:51:16.470Z,100576.13
2023-05-06T11:55:18.178Z,100580.75
2023-05-06T11:59:37.391Z,100581.66
2023-05-06T12:03:39.188Z,100572.97
2023-05-06T12:07:43.945Z,100565.16
2023-05-06T12:11:45.650Z,100566.91
2023-05-06T12:15:49.947Z,100564.31
2023-05-06T12:19:52.044Z,100566.06
2023-05-06T12:23:57.824Z,100564.22
2023-05-06T12:27:59.451Z,100560.41
2023-05-06T12:32:09.467Z,100559.13
2023-05-06T12:36:11.492Z,100547.28
2023-05-06T12:40:17.800Z,100544.53
2023-05-06T12:44:37.579Z,100552.28
2023-05-06T12:48:39.484Z,100542.81
2023-05-06T12:52:43.937Z,100534.19
2023-05-06T12:56:45.964Z,100527.84
2023-05-06T13:00:47.604Z,100538.88
2023-05-06T13:04:49.607Z,100535.28
2023-05-06T13:08:51.213Z,100519.50
2023-05-06T13:12:52.945Z,100516.81
2023-05-06T13:16:54.676Z,100512.13
2023-05-06T13:20:56.323Z,100506.50
2023-05-06T13:24:57.857Z,100493.66
2023-05-06T13:28:59.553Z,100489.84
2023-05-06T13:33:01.248Z,100477.28
2023-05-06T13:37:02.837Z,100480.44
2023-05-06T13:41:04.573Z,100471.25
2023-05-06T13:45:06.763Z,100471.28
2023-05-06T13:49:08.315Z,100467.09
2023-05-06T13:53:10.660Z,100458.47
2023-05-06T13:57:12.208Z,100462.53
2023-05-06T14:01:13.910Z,100452.34
2023-05-06T14:05:15.895Z,100447.56
2023-05-06T14:09:18.054Z,100451.88
2023-05-06T14:13:19.774Z,100449.25
2023-05-06T14:17:21.434Z,100434.47
2023-05-06T14:21:22.974Z,100432.81
2023-05-06T14:25:27.525Z,100423.84
2023-05-06T14:29:29.406Z,100431.97
2023-05-06T14:33:31.096Z,100430.84
2023-05-06T14:37:32.958Z,100420.25
2023-05-06T14:41:34.549Z,100416.84
2023-05-06T14:45:36.144Z,100409.69
2023-05-06T14:49:37.732Z,100410.50
2023-05-06T14:53:39.401Z,100401.31
2023-05-06T14:57:40.931Z,100403.47
2023-05-06T15:01:42.557Z,100389.50
2023-05-06T15:05:44.350Z,100405.59
2023-05-06T15:09:45.944Z,100396.16
2023-05-06T15:13:47.551Z,100389.59
2023-05-06T15:17:52.159Z,100393.59
2023-05-06T15:21:54.410Z,100399.09
2023-05-06T15:25:58.774Z,100397.06
2023-05-06T15:30:04.172Z,100389.13
2023-05-06T15:34:06.758Z,100390.16
2023-05-06T15:38:08.503Z,100389.50
2023-05-06T15:42:10.851Z,100388.41
2023-05-06T15:46:12.439Z,100395.50
2023-05-06T15:50:25.281Z,100382.69
2023-05-06T15:54:37.573Z,100394.66
2023-05-06T15:58:41.742Z,100383.94
2023-05-06T16:02:43.457Z,100384.91
2023-05-06T16:06:45.227Z,100388.47
2023-05-06T16:10:46.870Z,100392.91
2023-05-06T16:14:48.398Z,100381.75
2023-05-06T16:18:49.930Z,100375.84
2023-05-06T16:22:51.593Z,100369.81
2023-05-06T16:26:55.163Z,100376.16
2023-05-06T16:30:56.785Z,100373.19
2023-05-06T16:34:59.364Z,100375.81
2023-05-06T16:39:01.137Z,100374.13
2023-05-06T16:43:03.047Z,100373.97
2023-05-06T16:47:04.748Z,100372.88
2023-05-06T16:51:06.588Z,100371.56
2023-05-06T16:55:08.519Z,100365.81
2023-05-06T16:59:10.273Z,100369.53
2023-05-06T17:03:12.011Z,100368.97
2023-05-06T17:07:13.660Z,100368.41
2023-05-06T17:11:15.472Z,100367.00
2023-05-06T17:15:17.122Z,100352.50
2023-05-06T17:19:18.692Z,100363.34
2023-05-06T17:23:20.225Z,100359.28
2023-05-06T17:27:21.970Z,100360.44
2023-05-06T17:31:23.728Z,100363.31
2023-05-06T17:35:26.139Z,100364.25
2023-05-06T17:39:27.645Z,100364.34
2023-05-06T17:43:29.248Z,100364.56
2023-05-06T17:47:30.882Z,100362.09
2023-05-06T17:51:32.493Z,100363.06
2023-05-06T17:55:34.013Z,100357.09
2023-05-06T17:59:37.056Z,100364.22
2023-05-06T18:03:39.633Z,100357.34
2023-05-06T18:07:41.653Z,100361.84
2023-05-06T18:11:43.773Z,100372.44
2023-05-06T18:15:45.378Z,100369.09
2023-05-06T18:19:46.936Z,100371.81
2023-05-06T18:23:51.455Z,100367.63
2023-05-06T18:27:55.062Z,100371.25
2023-05-06T18:31:57.385Z,100386.13
2023-05-06T18:35:59.064Z,100389.72
2023-05-06T18:40:00.736Z,100378.59
2023-05-06T18:44:04.043Z,100383.09
2023-05-06T18:48:05.934Z,100374.53
2023-05-06T18:52:07.487Z,100385.06
2023-05-06T18:56:10.370Z,100390.38
2023-05-06T19:00:12.500Z,100394.81
2023-05-06T19:04:14.193Z,100396.59
2023-05-06T19:08:16.196Z,100401.00
2023-05-06T19:12:18.345Z,100408.91
2023-05-06T19:16:19.927Z,100414.16
2023-05-06T19:20:21.617Z,100420.28
2023-05-06T19:24:23.359Z,100423.78
2023-05-06T19:28:24.967Z,100417.75
2023-05-06T19:32:26.550Z,100421.25
2023-05-06T19:36:28.431Z,100422.13
2023-05-06T19:40:31.048Z,100422.16
2023-05-06T19:44:32.638Z,100427.38
2023-05-06T19:48:36.237Z,100429.16
2023-05-06T19:52:38.678Z,100417.03
2023-05-06T19:56:40.324Z,100425.69
2023-05-06T20:00:41.968Z,100428.38
2023-05-06T20:04:43.633Z,100431.88
2023-05-06T20:08:45.876Z,100425.88
2023-05-06T20:12:47.490Z,100425.88
2023-05-06T20:16:49.267Z,100425.03
2023-05-06T20:20:50.845Z,100425.91
2023-05-06T20:24:53.144Z,100418.97
2023-05-06T20:28:54.766Z,100424.19
2023-05-06T20:32:56.472Z,100434.59
2023-05-06T20:36:58.140Z,100430.28
2023-05-06T20:41:02.650Z,100436.34
2023-05-06T20:45:04.803Z,100434.63
2023-05-06T20:49:07.628Z,100435.50
2023-05-06T20:53:09.227Z,100434.66
2023-05-06T20:57:11.654Z,100436.38
2023-05-06T21:01:16.348Z,100426.88
2023-05-06T21:05:18.064Z,100428.59
2023-05-06T21:09:19.784Z,100437.28
2023-05-06T21:13:21.504Z,100433.78
2023-05-06T21:17:23.181Z,100427.72
2023-05-06T21:21:25.247Z,100439.84
2023-05-06T21:25:26.948Z,100445.03
2023-05-06T21:29:28.518Z,100440.69
2023-05-06T21:33:30.062Z,100442.41
2023-05-06T21:37:31.876Z,100441.50
2023-05-06T21:41:35.568Z,100438.91
2023-05-06T21:45:37.101Z,100429.38
2023-05-06T21:49:38.707Z,100434.53
2023-05-06T21:53:40.265Z,100432.78
2023-05-06T21:57:42.159Z,100432.78
2023-05-06T22:01:44.304Z,100426.69
2023-05-06T22:05:45.900Z,100422.38
2023-05-06T22:09:47.456Z,100423.25
2023-05-06T22:13:48.956Z,100424.09
2023-05-06T22:17:50.669Z,100430.13
2023-05-06T22:21:52.242Z,100424.94
2023-05-06T22:25:53.789Z,100418.88
2023-05-06T22:29:55.320Z,100428.38
2023-05-06T22:33:58.237Z,100428.34
2023-05-06T22:37:59.866Z,100430.06
2023-05-06T22:42:01.690Z,100428.31
2023-05-06T22:46:03.704Z,100437.81
2023-05-06T22:50:06.626Z,100431.78
2023-05-06T22:54:08.403Z,100435.22
2023-05-06T22:58:10.002Z,100431.72
2023-05-06T23:02:11.546Z,100430.88
2023-05-06T23:06:13.115Z,100431.75
2023-05-06T23:10:14.783Z,100431.72
2023-05-06T23:14:17.262Z,100431.72
2023-05-06T23:18:20.563Z,100435.97
2023-05-06T23:22:22.190Z,100432.47
2023-05-06T23:26:24.103Z,100434.97
2023-05-06T23:30:25.749Z,100447.91
2023-05-06T23:34:27.430Z,100450.41
2023-05-06T23:38:29.073Z,100452.13
2023-05-06T23:42:30.698Z,100452.13
2023-05-06T23:46:34.349Z,100449.53
2023-05-06T23:50:36.062Z,100445.22
2023-05-06T23:54:37.648Z,100446.06
2023-05-06T23:58:39.205Z,100450.28
